Flight Track Log - Related Links

Times and Time Zones

All times are in EDT time to prevent confusion due to time zone crossing. See the SWA550 flight status page for this flight to view local times or setup timezone preferences in your user account.


Time Position Orientation Groundspeed Altitude Reporting Facility
EDT Latitude Longitude Course Direction KTS MPH feet Rate Location/Type
Fri 02:35:21 PM 32.7458 -117.2383 287° West 173 199 1,700  Level Los Angeles Center
Fri 02:36:23 PM 32.7436 -117.3083 268° West 220 253 4,200 2,710 Climbing Los Angeles Center
Fri 02:37:25 PM 32.6906 -117.3569 218° Southwest 235 270 7,300 2,855 Climbing Los Angeles Center
Fri 02:38:27 PM 32.6447 -117.2947 131° Southeast 267 307 10,100 2,832 Climbing Los Angeles Center
Fri 02:39:30 PM 32.6322 -117.1747 97° East 294 338 13,200 2,832 Climbing Los Angeles Center
Fri 02:40:32 PM 32.6203 -117.0631 97° East 318 366 16,000 2,419 Climbing Los Angeles Center
Fri 02:41:34 PM 32.6125 -116.9447 94° East 343 395 18,200 2,323 Climbing Los Angeles Center
Fri 02:42:36 PM 32.6264 -116.8231 82° East 363 418 20,800 2,177 Climbing Los Angeles Center
Fri 02:43:38 PM 32.6386 -116.6997 83° East 371 427 22,700 2,177 Climbing Los Angeles Center
Fri 02:44:40 PM 32.6531 -116.5428 84° East 395 455 25,300 2,032 Climbing Los Angeles Center
Fri 02:45:42 PM 32.6647 -116.4122 84° East 403 464 26,900 823 Climbing Los Angeles Center
Fri 02:46:44 PM 32.6781 -116.2786 83° East 413 475 27,000 48 Climbing Los Angeles Center
Fri 02:47:46 PM 32.6911 -116.1447 83° East 414 476 27,000  Level Los Angeles Center
Fri 02:48:48 PM 32.7061 -115.9836 84° East 412 474 27,000  Level Los Angeles Center
Fri 02:49:51 PM 32.7181 -115.8486 84° East 412 474 27,000  Level Los Angeles Center
Fri 02:50:53 PM 32.7306 -115.7142 84° East 413 475 27,000  Level Los Angeles Center
Fri 02:51:55 PM 32.7428 -115.5800 84° East 410 472 27,000  Level Los Angeles Center
Fri 02:52:57 PM 32.7511 -115.4461 86° East 410 472 27,000  Level Los Angeles Center
Fri 02:53:59 PM 32.7531 -115.3117 89° East 408 470 27,000  Level Los Angeles Center
Fri 02:55:01 PM 32.7558 -115.1522 89° East 404 465 27,000  Level Los Angeles Center
Fri 02:56:03 PM 32.7586 -115.0203 89° East 401 461 27,000  Level Los Angeles Center
Fri 02:57:05 PM 32.7606 -114.8892 89° East 399 459 27,000  Level Los Angeles Center
Fri 02:58:07 PM 32.7633 -114.7586 89° East 397 457 27,000  Level Los Angeles Center
Fri 02:59:09 PM 32.7664 -114.6286 88° East 395 455 27,000 -96 Level Los Angeles Center
Fri 03:00:12 PM 32.7681 -114.4736 89° East 392 451 26,800 -576 Descending Los Angeles Center
Fri 03:01:14 PM 32.7694 -114.3431 89° East 394 453 25,800 -871 Descending Los Angeles Center
Fri 03:02:16 PM 32.7750 -114.2147 87° East 391 450 25,000 -387 Descending Los Angeles Center
Fri 03:03:18 PM 32.7767 -114.0878 89° East 387 445 25,000  Level Los Angeles Center
Fri 03:04:20 PM 32.7792 -113.9597 89° East 389 448 25,000  Level Los Angeles Center
Fri 03:05:22 PM 32.7958 -113.8358 81° East 383 441 25,000  Level Los Angeles Center
Fri 03:06:24 PM 32.8200 -113.6861 79° East 383 441 25,000  Level Los Angeles Center
Fri 03:07:36 PM 32.8969 -113.5789 49° Northeast 379 436 25,000 -90 Level Albuquerque Center
Fri 03:08:38 PM 32.9686 -113.4836 48° Northeast 383 441 24,800 -1,268 Descending Albuquerque Center
Fri 03:09:39 PM 33.0369 -113.3894 49° Northeast 378 435 22,400 -1,366 Descending Albuquerque Center
Fri 03:10:41 PM 33.1033 -113.2978 49° Northeast 368 423 22,000 -194 Descending Albuquerque Center
Fri 03:11:43 PM 33.1453 -113.1875 66° East 365 420 22,000 -1,065 Level Albuquerque Center
Fri 03:12:45 PM 33.1944 -113.0539 66° East 365 420 19,800 -2,129 Descending Albuquerque Center
Fri 03:13:47 PM 33.2339 -112.9458 66° East 359 413 17,600 -1,854 Descending Albuquerque Center
Fri 03:14:48 PM 33.2717 -112.8425 66° East 346 398 16,000 -823 Descending Albuquerque Center
Fri 03:15:51 PM 33.2811 -112.7425 84° East 313 360 15,900 -97 Descending Albuquerque Center
Fri 03:16:52 PM 33.2842 -112.6403 88° East 309 356 15,800 -1,024 Descending Albuquerque Center
Fri 03:17:54 PM 33.2869 -112.5264 88° East 305 351 13,800 -1,790 Descending Albuquerque Center
Fri 03:18:56 PM 33.2897 -112.4289 88° East 299 344 12,100 -1,403 Descending Albuquerque Center
Fri 03:19:58 PM 33.2925 -112.3333 88° East 293 337 10,900 -919 Descending Albuquerque Center
Fri 03:21:00 PM 33.3003 -112.2383 84° East 291 335 10,200 -871 Descending Albuquerque Center
Fri 03:22:02 PM 33.3067 -112.1478 85° East 281 323 9,100 -683 Descending Albuquerque Center
Fri 03:23:03 PM 33.3181 -112.0653 81° East 265 305 8,800 -976 Descending Albuquerque Center
Fri 03:24:05 PM 33.3419 -111.9700 73° East 253 291 7,100 -1,016 Descending Albuquerque Center
Fri 03:25:07 PM 33.3453 -111.8908 87° East 242 278 6,700 -823 Descending Albuquerque Center
Fri 03:26:09 PM 33.3453 -111.8208 90° East 217 250 5,400 -1,113 Descending Albuquerque Center
Fri 03:27:11 PM 33.3625 -111.7589 72° East 216 249 4,400 -677 Descending Albuquerque Center
Fri 03:28:13 PM 33.4142 -111.7708 349° North 211 243 4,000 -242 Descending Albuquerque Center
Fri 03:29:15 PM 33.4294 -111.8311 287° West 199 229 3,900 -683 Descending Albuquerque Center
Fri 03:30:16 PM 33.4297 -111.9044 270° West 188 216 2,600 -1,024 Descending Albuquerque Center
Fri 03:31:18 PM 33.4297 -111.9583 270° West 178 205 1,800 -532 Descending Albuquerque Center
Fri 03:32:20 PM 33.4311 -112.0044 272° West 170 196 1,500 -290 Descending Albuquerque Center

Login

Don't have an account? Register now (free) for customized features, flight alerts, and more!